sensor_id;sensor_type;location;lat;lon;timestamp;temperature;humidity
44305;DHT22;30019;50.576;8.568;2022-10-16T00:00:35;12.30;99.90
44305;DHT22;30019;50.576;8.568;2022-10-16T00:03:01;12.20;99.90
44305;DHT22;30019;50.576;8.568;2022-10-16T00:05:27;12.20;99.90
44305;DHT22;30019;50.576;8.568;2022-10-16T00:07:52;12.20;99.90
44305;DHT22;30019;50.576;8.568;2022-10-16T00:10:18;12.20;99.90
44305;DHT22;30019;50.576;8.568;2022-10-16T00:12:44;12.20;99.90
44305;DHT22;30019;50.576;8.568;2022-10-16T00:15:09;12.10;99.90
44305;DHT22;30019;50.576;8.568;2022-10-16T00:17:35;12.10;99.90
44305;DHT22;30019;50.576;8.568;2022-10-16T00:20:00;12.10;99.90
44305;DHT22;30019;50.576;8.568;2022-10-16T00:22:26;12.00;99.90
44305;DHT22;30019;50.576;8.568;2022-10-16T00:24:52;12.10;99.90
44305;DHT22;30019;50.576;8.568;2022-10-16T00:27:17;12.10;99.90
44305;DHT22;30019;50.576;8.568;2022-10-16T00:29:43;12.10;99.90
44305;DHT22;30019;50.576;8.568;2022-10-16T00:32:09;12.10;99.90
44305;DHT22;30019;50.576;8.568;2022-10-16T00:34:34;12.20;99.90
44305;DHT22;30019;50.576;8.568;2022-10-16T00:37:00;12.10;99.90
44305;DHT22;30019;50.576;8.568;2022-10-16T00:39:26;12.10;99.90
44305;DHT22;30019;50.576;8.568;2022-10-16T00:41:51;12.10;99.90
44305;DHT22;30019;50.576;8.568;2022-10-16T00:47:36;12.10;99.90
44305;DHT22;30019;50.576;8.568;2022-10-16T00:50:06;12.10;99.90
44305;DHT22;30019;50.576;8.568;2022-10-16T00:52:32;12.10;99.90
44305;DHT22;30019;50.576;8.568;2022-10-16T00:55:00;12.10;99.90
44305;DHT22;30019;50.576;8.568;2022-10-16T00:57:27;12.10;99.90
44305;DHT22;30019;50.576;8.568;2022-10-16T00:59:53;12.10;99.90
44305;DHT22;30019;50.576;8.568;2022-10-16T01:02:18;12.10;99.90
44305;DHT22;30019;50.576;8.568;2022-10-16T01:04:47;12.10;99.90
44305;DHT22;30019;50.576;8.568;2022-10-16T01:12:51;12.20;99.90
44305;DHT22;30019;50.576;8.568;2022-10-16T01:15:44;12.10;99.90
44305;DHT22;30019;50.576;8.568;2022-10-16T01:21:13;12.00;99.90
44305;DHT22;30019;50.576;8.568;2022-10-16T01:24:06;12.10;99.90
44305;DHT22;30019;50.576;8.568;2022-10-16T01:27:01;12.10;99.90
44305;DHT22;30019;50.576;8.568;2022-10-16T01:29:38;12.10;99.90
44305;DHT22;30019;50.576;8.568;2022-10-16T01:32:13;12.10;99.90
44305;DHT22;30019;50.576;8.568;2022-10-16T01:34:52;12.10;99.90
44305;DHT22;30019;50.576;8.568;2022-10-16T01:37:33;12.00;99.90
44305;DHT22;30019;50.576;8.568;2022-10-16T01:40:03;12.00;99.90
44305;DHT22;30019;50.576;8.568;2022-10-16T01:42:35;12.00;99.90
44305;DHT22;30019;50.576;8.568;2022-10-16T01:45:02;12.00;99.90
44305;DHT22;30019;50.576;8.568;2022-10-16T01:47:31;12.10;99.90
44305;DHT22;30019;50.576;8.568;2022-10-16T01:49:59;12.10;99.90
44305;DHT22;30019;50.576;8.568;2022-10-16T01:52:28;12.00;99.90
44305;DHT22;30019;50.576;8.568;2022-10-16T01:54:56;11.90;99.90
44305;DHT22;30019;50.576;8.568;2022-10-16T01:57:24;11.90;99.90
44305;DHT22;30019;50.576;8.568;2022-10-16T01:59:54;12.00;99.90
44305;DHT22;30019;50.576;8.568;2022-10-16T02:02:22;11.90;99.90
44305;DHT22;30019;50.576;8.568;2022-10-16T02:04:58;11.90;99.90
44305;DHT22;30019;50.576;8.568;2022-10-16T02:07:26;11.80;99.90
44305;DHT22;30019;50.576;8.568;2022-10-16T02:09:52;11.90;99.90
44305;DHT22;30019;50.576;8.568;2022-10-16T02:12:28;11.90;99.90
44305;DHT22;30019;50.576;8.568;2022-10-16T02:14:55;11.90;99.90
44305;DHT22;30019;50.576;8.568;2022-10-16T02:17:21;12.00;99.90
44305;DHT22;30019;50.576;8.568;2022-10-16T02:19:48;12.00;99.90
44305;DHT22;30019;50.576;8.568;2022-10-16T02:22:22;12.00;99.90
44305;DHT22;30019;50.576;8.568;2022-10-16T02:25:04;12.00;99.90
44305;DHT22;30019;50.576;8.568;2022-10-16T02:28:08;12.10;99.90
44305;DHT22;30019;50.576;8.568;2022-10-16T02:31:04;11.90;99.90
44305;DHT22;30019;50.576;8.568;2022-10-16T02:33:32;11.80;99.90
44305;DHT22;30019;50.576;8.568;2022-10-16T02:36:00;11.80;99.90
44305;DHT22;30019;50.576;8.568;2022-10-16T02:38:25;11.80;99.90
44305;DHT22;30019;50.576;8.568;2022-10-16T02:40:52;11.80;99.90
44305;DHT22;30019;50.576;8.568;2022-10-16T02:43:17;11.80;99.90
44305;DHT22;30019;50.576;8.568;2022-10-16T02:45:43;11.80;99.90
44305;DHT22;30019;50.576;8.568;2022-10-16T02:48:09;11.70;99.90
44305;DHT22;30019;50.576;8.568;2022-10-16T02:50:35;11.80;99.90
44305;DHT22;30019;50.576;8.568;2022-10-16T02:53:00;11.90;99.90
44305;DHT22;30019;50.576;8.568;2022-10-16T02:55:26;11.90;99.90
44305;DHT22;30019;50.576;8.568;2022-10-16T02:57:53;11.90;99.90
44305;DHT22;30019;50.576;8.568;2022-10-16T03:00:19;12.00;99.90
44305;DHT22;30019;50.576;8.568;2022-10-16T03:02:45;12.00;99.90
44305;DHT22;30019;50.576;8.568;2022-10-16T03:05:12;12.00;99.90
44305;DHT22;30019;50.576;8.568;2022-10-16T03:07:37;12.00;99.90
44305;DHT22;30019;50.576;8.568;2022-10-16T03:10:04;12.10;99.90
44305;DHT22;30019;50.576;8.568;2022-10-16T03:12:29;12.10;99.90
44305;DHT22;30019;50.576;8.568;2022-10-16T03:14:56;12.10;99.90
44305;DHT22;30019;50.576;8.568;2022-10-16T03:17:22;12.20;99.90
44305;DHT22;30019;50.576;8.568;2022-10-16T03:19:48;12.20;99.90
44305;DHT22;30019;50.576;8.568;2022-10-16T03:22:13;12.20;99.90
44305;DHT22;30019;50.576;8.568;2022-10-16T03:24:39;12.30;99.90
44305;DHT22;30019;50.576;8.568;2022-10-16T03:27:05;12.40;99.90
44305;DHT22;30019;50.576;8.568;2022-10-16T03:29:31;12.30;99.90
44305;DHT22;30019;50.576;8.568;2022-10-16T03:31:57;12.30;99.90
44305;DHT22;30019;50.576;8.568;2022-10-16T03:34:23;12.30;99.90
44305;DHT22;30019;50.576;8.568;2022-10-16T03:36:48;12.30;99.90
44305;DHT22;30019;50.576;8.568;2022-10-16T03:39:14;12.30;99.90
44305;DHT22;30019;50.576;8.568;2022-10-16T03:41:39;12.30;99.90
44305;DHT22;30019;50.576;8.568;2022-10-16T03:44:05;12.20;99.90
44305;DHT22;30019;50.576;8.568;2022-10-16T03:46:31;12.20;99.90
44305;DHT22;30019;50.576;8.568;2022-10-16T03:48:56;12.30;99.90
44305;DHT22;30019;50.576;8.568;2022-10-16T03:51:22;12.30;99.90
44305;DHT22;30019;50.576;8.568;2022-10-16T03:53:48;12.10;99.90
44305;DHT22;30019;50.576;8.568;2022-10-16T03:56:13;12.00;99.90
44305;DHT22;30019;50.576;8.568;2022-10-16T03:58:39;12.00;99.90
44305;DHT22;30019;50.576;8.568;2022-10-16T04:01:04;12.10;99.90
44305;DHT22;30019;50.576;8.568;2022-10-16T04:03:30;12.10;99.90
44305;DHT22;30019;50.576;8.568;2022-10-16T04:05:55;12.10;99.90
44305;DHT22;30019;50.576;8.568;2022-10-16T04:08:21;12.30;99.90
44305;DHT22;30019;50.576;8.568;2022-10-16T04:10:47;12.30;99.90
44305;DHT22;30019;50.576;8.568;2022-10-16T04:13:12;12.30;99.90
44305;DHT22;30019;50.576;8.568;2022-10-16T04:15:38;12.20;99.90
44305;DHT22;30019;50.576;8.568;2022-10-16T04:18:05;12.20;99.90
44305;DHT22;30019;50.576;8.568;2022-10-16T04:20:31;12.20;99.90
44305;DHT22;30019;50.576;8.568;2022-10-16T04:22:57;12.20;99.90
44305;DHT22;30019;50.576;8.568;2022-10-16T04:25:22;12.30;99.90
44305;DHT22;30019;50.576;8.568;2022-10-16T04:27:48;12.40;99.90
44305;DHT22;30019;50.576;8.568;2022-10-16T04:30:14;12.40;99.90
44305;DHT22;30019;50.576;8.568;2022-10-16T04:32:40;12.50;99.90
44305;DHT22;30019;50.576;8.568;2022-10-16T04:35:06;12.50;99.90
44305;DHT22;30019;50.576;8.568;2022-10-16T04:37:32;12.60;99.90
44305;DHT22;30019;50.576;8.568;2022-10-16T04:39:57;12.70;99.90
44305;DHT22;30019;50.576;8.568;2022-10-16T04:42:23;12.70;99.90
44305;DHT22;30019;50.576;8.568;2022-10-16T04:44:49;12.70;99.90
44305;DHT22;30019;50.576;8.568;2022-10-16T04:47:14;12.80;99.90
44305;DHT22;30019;50.576;8.568;2022-10-16T04:49:40;12.80;99.90
44305;DHT22;30019;50.576;8.568;2022-10-16T04:52:05;12.80;99.90
44305;DHT22;30019;50.576;8.568;2022-10-16T04:54:31;12.80;99.90
44305;DHT22;30019;50.576;8.568;2022-10-16T04:56:57;12.80;99.90
44305;DHT22;30019;50.576;8.568;2022-10-16T04:59:23;12.80;99.90
44305;DHT22;30019;50.576;8.568;2022-10-16T05:01:48;12.80;99.90
44305;DHT22;30019;50.576;8.568;2022-10-16T05:04:14;12.80;99.90
44305;DHT22;30019;50.576;8.568;2022-10-16T05:06:41;12.80;99.90
44305;DHT22;30019;50.576;8.568;2022-10-16T05:09:07;12.80;99.90
44305;DHT22;30019;50.576;8.568;2022-10-16T05:11:33;12.80;99.90
44305;DHT22;30019;50.576;8.568;2022-10-16T05:13:59;12.80;99.90
44305;DHT22;30019;50.576;8.568;2022-10-16T05:16:25;12.70;99.90
44305;DHT22;30019;50.576;8.568;2022-10-16T05:18:54;12.60;99.90
44305;DHT22;30019;50.576;8.568;2022-10-16T05:21:20;12.60;99.90
44305;DHT22;30019;50.576;8.568;2022-10-16T05:23:45;12.50;99.90
44305;DHT22;30019;50.576;8.568;2022-10-16T05:26:11;12.50;99.90
44305;DHT22;30019;50.576;8.568;2022-10-16T05:28:37;12.70;99.90
44305;DHT22;30019;50.576;8.568;2022-10-16T05:31:08;12.70;99.90
44305;DHT22;30019;50.576;8.568;2022-10-16T05:34:00;12.60;99.90
44305;DHT22;30019;50.576;8.568;2022-10-16T05:36:26;12.50;99.90
44305;DHT22;30019;50.576;8.568;2022-10-16T05:38:52;12.50;99.90
44305;DHT22;30019;50.576;8.568;2022-10-16T05:41:18;12.40;99.90
44305;DHT22;30019;50.576;8.568;2022-10-16T05:43:47;12.40;99.90
44305;DHT22;30019;50.576;8.568;2022-10-16T05:46:13;12.40;99.90
44305;DHT22;30019;50.576;8.568;2022-10-16T05:48:39;12.40;99.90
44305;DHT22;30019;50.576;8.568;2022-10-16T05:51:07;12.40;99.90
44305;DHT22;30019;50.576;8.568;2022-10-16T05:53:34;12.40;99.90
44305;DHT22;30019;50.576;8.568;2022-10-16T05:56:00;12.40;99.90
44305;DHT22;30019;50.576;8.568;2022-10-16T05:58:29;12.40;99.90
44305;DHT22;30019;50.576;8.568;2022-10-16T06:00:56;12.50;99.90
44305;DHT22;30019;50.576;8.568;2022-10-16T06:03:22;12.50;99.90
44305;DHT22;30019;50.576;8.568;2022-10-16T06:05:48;12.50;99.90
44305;DHT22;30019;50.576;8.568;2022-10-16T06:08:14;12.40;99.90
44305;DHT22;30019;50.576;8.568;2022-10-16T06:10:39;12.40;99.90
44305;DHT22;30019;50.576;8.568;2022-10-16T06:13:05;12.40;99.90
44305;DHT22;30019;50.576;8.568;2022-10-16T06:15:33;12.30;99.90
44305;DHT22;30019;50.576;8.568;2022-10-16T06:17:59;12.40;99.90
44305;DHT22;30019;50.576;8.568;2022-10-16T06:20:24;12.50;99.90
44305;DHT22;30019;50.576;8.568;2022-10-16T06:22:50;12.50;99.90
44305;DHT22;30019;50.576;8.568;2022-10-16T06:25:15;12.60;99.90
44305;DHT22;30019;50.576;8.568;2022-10-16T06:27:41;12.60;99.90
44305;DHT22;30019;50.576;8.568;2022-10-16T06:30:07;12.50;99.90
44305;DHT22;30019;50.576;8.568;2022-10-16T06:32:33;12.60;99.90
44305;DHT22;30019;50.576;8.568;2022-10-16T06:34:58;12.80;99.90
44305;DHT22;30019;50.576;8.568;2022-10-16T06:37:24;12.80;99.90
44305;DHT22;30019;50.576;8.568;2022-10-16T06:39:50;12.70;99.90
44305;DHT22;30019;50.576;8.568;2022-10-16T06:42:18;12.60;99.90
44305;DHT22;30019;50.576;8.568;2022-10-16T06:44:43;12.70;99.90
44305;DHT22;30019;50.576;8.568;2022-10-16T06:47:09;12.60;99.90
44305;DHT22;30019;50.576;8.568;2022-10-16T06:49:35;12.60;99.90
44305;DHT22;30019;50.576;8.568;2022-10-16T06:52:01;12.70;99.90
44305;DHT22;30019;50.576;8.568;2022-10-16T06:54:27;12.70;99.90
44305;DHT22;30019;50.576;8.568;2022-10-16T06:56:53;12.70;99.90
44305;DHT22;30019;50.576;8.568;2022-10-16T06:59:20;12.90;99.90
44305;DHT22;30019;50.576;8.568;2022-10-16T07:01:46;13.10;99.90
44305;DHT22;30019;50.576;8.568;2022-10-16T07:04:11;13.00;99.90
44305;DHT22;30019;50.576;8.568;2022-10-16T07:06:37;13.00;99.90
44305;DHT22;30019;50.576;8.568;2022-10-16T07:09:05;13.10;99.90
44305;DHT22;30019;50.576;8.568;2022-10-16T07:11:31;13.20;99.90
44305;DHT22;30019;50.576;8.568;2022-10-16T07:13:57;13.20;99.90
44305;DHT22;30019;50.576;8.568;2022-10-16T07:16:25;13.20;99.90
44305;DHT22;30019;50.576;8.568;2022-10-16T07:18:51;13.40;99.90
44305;DHT22;30019;50.576;8.568;2022-10-16T07:21:22;13.40;99.90
44305;DHT22;30019;50.576;8.568;2022-10-16T07:23:51;13.50;99.90
44305;DHT22;30019;50.576;8.568;2022-10-16T07:26:17;13.70;99.90
44305;DHT22;30019;50.576;8.568;2022-10-16T07:28:43;13.70;99.90
44305;DHT22;30019;50.576;8.568;2022-10-16T07:31:11;13.50;99.90
44305;DHT22;30019;50.576;8.568;2022-10-16T07:33:38;13.50;99.90
44305;DHT22;30019;50.576;8.568;2022-10-16T07:36:04;13.50;99.90
44305;DHT22;30019;50.576;8.568;2022-10-16T07:38:30;13.40;99.90
44305;DHT22;30019;50.576;8.568;2022-10-16T07:41:07;13.30;99.90
44305;DHT22;30019;50.576;8.568;2022-10-16T07:43:33;13.30;99.90
44305;DHT22;30019;50.576;8.568;2022-10-16T07:45:59;13.30;99.90
44305;DHT22;30019;50.576;8.568;2022-10-16T07:48:28;13.40;99.90
44305;DHT22;30019;50.576;8.568;2022-10-16T07:51:00;13.40;99.90
44305;DHT22;30019;50.576;8.568;2022-10-16T07:53:27;13.40;99.90
44305;DHT22;30019;50.576;8.568;2022-10-16T07:55:57;13.40;99.90
44305;DHT22;30019;50.576;8.568;2022-10-16T07:58:23;13.40;99.90
44305;DHT22;30019;50.576;8.568;2022-10-16T08:00:49;13.60;99.90
44305;DHT22;30019;50.576;8.568;2022-10-16T08:03:15;13.70;99.90
44305;DHT22;30019;50.576;8.568;2022-10-16T08:05:40;13.60;99.90
44305;DHT22;30019;50.576;8.568;2022-10-16T08:08:06;13.60;99.90
44305;DHT22;30019;50.576;8.568;2022-10-16T08:10:31;13.80;99.90
44305;DHT22;30019;50.576;8.568;2022-10-16T08:12:57;14.10;99.90
44305;DHT22;30019;50.576;8.568;2022-10-16T08:15:24;14.30;99.90
44305;DHT22;30019;50.576;8.568;2022-10-16T08:17:57;14.40;99.90
44305;DHT22;30019;50.576;8.568;2022-10-16T08:20:24;14.70;99.90
44305;DHT22;30019;50.576;8.568;2022-10-16T08:22:50;14.70;99.90
44305;DHT22;30019;50.576;8.568;2022-10-16T08:25:15;14.60;99.90
44305;DHT22;30019;50.576;8.568;2022-10-16T08:27:41;14.70;99.90
44305;DHT22;30019;50.576;8.568;2022-10-16T08:30:07;14.70;99.90
44305;DHT22;30019;50.576;8.568;2022-10-16T08:32:33;14.80;99.90
44305;DHT22;30019;50.576;8.568;2022-10-16T08:34:58;14.80;99.90
44305;DHT22;30019;50.576;8.568;2022-10-16T08:37:24;14.90;99.90
44305;DHT22;30019;50.576;8.568;2022-10-16T08:39:50;14.90;99.90
44305;DHT22;30019;50.576;8.568;2022-10-16T08:42:44;14.90;99.90
44305;DHT22;30019;50.576;8.568;2022-10-16T08:45:24;14.90;99.90
44305;DHT22;30019;50.576;8.568;2022-10-16T08:50:29;15.20;99.90
44305;DHT22;30019;50.576;8.568;2022-10-16T08:52:55;15.20;99.90
44305;DHT22;30019;50.576;8.568;2022-10-16T08:55:41;15.10;99.90
44305;DHT22;30019;50.576;8.568;2022-10-16T08:58:13;15.40;99.90
44305;DHT22;30019;50.576;8.568;2022-10-16T09:00:40;15.40;99.90
44305;DHT22;30019;50.576;8.568;2022-10-16T09:03:46;15.30;99.90
44305;DHT22;30019;50.576;8.568;2022-10-16T09:09:30;15.10;99.90
44305;DHT22;30019;50.576;8.568;2022-10-16T09:12:25;15.20;99.90
44305;DHT22;30019;50.576;8.568;2022-10-16T09:20:26;15.90;99.90
44305;DHT22;30019;50.576;8.568;2022-10-16T09:23:17;16.00;99.90
44305;DHT22;30019;50.576;8.568;2022-10-16T09:25:46;16.30;99.90
44305;DHT22;30019;50.576;8.568;2022-10-16T09:28:13;16.50;99.90
44305;DHT22;30019;50.576;8.568;2022-10-16T09:30:39;16.50;99.90
44305;DHT22;30019;50.576;8.568;2022-10-16T09:33:06;16.40;99.90
44305;DHT22;30019;50.576;8.568;2022-10-16T09:35:42;16.20;99.90
44305;DHT22;30019;50.576;8.568;2022-10-16T09:38:08;16.20;99.90
44305;DHT22;30019;50.576;8.568;2022-10-16T09:40:38;16.30;99.90
44305;DHT22;30019;50.576;8.568;2022-10-16T09:43:19;16.30;99.90
44305;DHT22;30019;50.576;8.568;2022-10-16T09:46:00;16.60;99.90
44305;DHT22;30019;50.576;8.568;2022-10-16T09:48:48;16.90;99.90
44305;DHT22;30019;50.576;8.568;2022-10-16T09:51:30;16.90;99.90
44305;DHT22;30019;50.576;8.568;2022-10-16T09:53:59;17.00;99.90
44305;DHT22;30019;50.576;8.568;2022-10-16T09:56:32;16.90;99.90
44305;DHT22;30019;50.576;8.568;2022-10-16T09:59:01;16.90;99.90
44305;DHT22;30019;50.576;8.568;2022-10-16T10:01:48;17.30;99.90
44305;DHT22;30019;50.576;8.568;2022-10-16T10:04:14;17.30;99.90
44305;DHT22;30019;50.576;8.568;2022-10-16T10:09:30;17.10;99.90
44305;DHT22;30019;50.576;8.568;2022-10-16T10:12:01;17.30;99.90
44305;DHT22;30019;50.576;8.568;2022-10-16T10:24:56;18.70;99.90
44305;DHT22;30019;50.576;8.568;2022-10-16T10:27:32;18.40;99.90
44305;DHT22;30019;50.576;8.568;2022-10-16T10:36:37;18.30;99.90
44305;DHT22;30019;50.576;8.568;2022-10-16T10:39:25;18.70;99.90
44305;DHT22;30019;50.576;8.568;2022-10-16T10:47:42;19.50;99.90
44305;DHT22;30019;50.576;8.568;2022-10-16T10:53:07;19.40;99.90
44305;DHT22;30019;50.576;8.568;2022-10-16T10:56:00;19.00;99.90
44305;DHT22;30019;50.576;8.568;2022-10-16T11:01:48;18.30;99.90
44305;DHT22;30019;50.576;8.568;2022-10-16T11:07:32;18.80;99.90
44305;DHT22;30019;50.576;8.568;2022-10-16T11:15:43;18.00;99.90
44305;DHT22;30019;50.576;8.568;2022-10-16T11:18:40;18.50;99.90
44305;DHT22;30019;50.576;8.568;2022-10-16T11:21:06;18.70;99.90
44305;DHT22;30019;50.576;8.568;2022-10-16T11:23:59;18.80;99.90
44305;DHT22;30019;50.576;8.568;2022-10-16T11:26:28;18.80;99.90
44305;DHT22;30019;50.576;8.568;2022-10-16T11:28:56;19.10;99.90
44305;DHT22;30019;50.576;8.568;2022-10-16T11:31:29;19.40;99.90
44305;DHT22;30019;50.576;8.568;2022-10-16T11:36:51;19.90;99.90
44305;DHT22;30019;50.576;8.568;2022-10-16T11:39:21;20.00;99.90
44305;DHT22;30019;50.576;8.568;2022-10-16T11:45:30;21.00;99.90
44305;DHT22;30019;50.576;8.568;2022-10-16T11:47:57;21.90;99.90
44305;DHT22;30019;50.576;8.568;2022-10-16T11:50:51;21.80;99.90
44305;DHT22;30019;50.576;8.568;2022-10-16T11:56:13;22.00;99.90
44305;DHT22;30019;50.576;8.568;2022-10-16T11:59:24;22.40;99.90
44305;DHT22;30019;50.576;8.568;2022-10-16T12:02:10;22.50;99.90
44305;DHT22;30019;50.576;8.568;2022-10-16T12:04:45;22.40;99.90
44305;DHT22;30019;50.576;8.568;2022-10-16T12:07:16;22.10;99.90
44305;DHT22;30019;50.576;8.568;2022-10-16T12:09:44;21.80;99.90
44305;DHT22;30019;50.576;8.568;2022-10-16T12:15:01;23.70;99.90
44305;DHT22;30019;50.576;8.568;2022-10-16T12:17:38;23.90;99.90
44305;DHT22;30019;50.576;8.568;2022-10-16T12:22:48;21.90;99.90
44305;DHT22;30019;50.576;8.568;2022-10-16T12:25:21;20.90;99.90
44305;DHT22;30019;50.576;8.568;2022-10-16T12:27:57;20.50;99.90
44305;DHT22;30019;50.576;8.568;2022-10-16T12:30:25;20.50;99.90
44305;DHT22;30019;50.576;8.568;2022-10-16T12:33:03;21.40;99.90
44305;DHT22;30019;50.576;8.568;2022-10-16T12:35:35;21.80;99.90
44305;DHT22;30019;50.576;8.568;2022-10-16T12:40:39;21.50;99.90
44305;DHT22;30019;50.576;8.568;2022-10-16T12:46:06;19.90;99.90
44305;DHT22;30019;50.576;8.568;2022-10-16T12:48:45;19.70;99.90
44305;DHT22;30019;50.576;8.568;2022-10-16T12:54:14;19.30;99.90
44305;DHT22;30019;50.576;8.568;2022-10-16T12:57:31;19.20;99.90
44305;DHT22;30019;50.576;8.568;2022-10-16T13:06:27;20.20;99.90
44305;DHT22;30019;50.576;8.568;2022-10-16T13:12:15;20.90;99.90
44305;DHT22;30019;50.576;8.568;2022-10-16T13:17:37;22.80;99.90
44305;DHT22;30019;50.576;8.568;2022-10-16T13:26:04;21.80;99.90
44305;DHT22;30019;50.576;8.568;2022-10-16T13:28:33;23.30;99.90
44305;DHT22;30019;50.576;8.568;2022-10-16T13:31:01;22.60;99.90
44305;DHT22;30019;50.576;8.568;2022-10-16T13:33:33;22.60;99.90
44305;DHT22;30019;50.576;8.568;2022-10-16T13:36:00;21.60;99.90
44305;DHT22;30019;50.576;8.568;2022-10-16T13:38:32;21.50;99.90
44305;DHT22;30019;50.576;8.568;2022-10-16T13:40:59;21.80;99.90
44305;DHT22;30019;50.576;8.568;2022-10-16T13:46:05;21.90;99.90
44305;DHT22;30019;50.576;8.568;2022-10-16T13:48:33;22.40;99.90
44305;DHT22;30019;50.576;8.568;2022-10-16T13:51:00;22.10;99.90
44305;DHT22;30019;50.576;8.568;2022-10-16T13:53:26;21.70;99.90
44305;DHT22;30019;50.576;8.568;2022-10-16T13:55:52;21.50;99.90
44305;DHT22;30019;50.576;8.568;2022-10-16T13:58:17;21.40;99.90
44305;DHT22;30019;50.576;8.568;2022-10-16T14:00:58;20.70;99.90
44305;DHT22;30019;50.576;8.568;2022-10-16T14:03:25;20.50;99.90
44305;DHT22;30019;50.576;8.568;2022-10-16T14:06:00;20.50;99.90
44305;DHT22;30019;50.576;8.568;2022-10-16T14:08:27;21.00;99.90
44305;DHT22;30019;50.576;8.568;2022-10-16T14:10:56;21.60;99.90
44305;DHT22;30019;50.576;8.568;2022-10-16T14:13:29;22.40;99.90
44305;DHT22;30019;50.576;8.568;2022-10-16T14:15:55;23.00;99.90
44305;DHT22;30019;50.576;8.568;2022-10-16T14:18:25;22.40;99.90
44305;DHT22;30019;50.576;8.568;2022-10-16T14:20:52;21.30;99.90
44305;DHT22;30019;50.576;8.568;2022-10-16T14:23:23;20.80;99.90
44305;DHT22;30019;50.576;8.568;2022-10-16T14:25:53;20.60;99.90
44305;DHT22;30019;50.576;8.568;2022-10-16T14:28:21;20.30;99.90
44305;DHT22;30019;50.576;8.568;2022-10-16T14:30:58;20.10;99.90
44305;DHT22;30019;50.576;8.568;2022-10-16T14:33:32;19.90;99.90
44305;DHT22;30019;50.576;8.568;2022-10-16T14:38:37;19.40;99.90
44305;DHT22;30019;50.576;8.568;2022-10-16T14:41:04;19.30;99.90
44305;DHT22;30019;50.576;8.568;2022-10-16T14:43:37;19.40;99.90
44305;DHT22;30019;50.576;8.568;2022-10-16T14:46:06;19.60;99.90
44305;DHT22;30019;50.576;8.568;2022-10-16T14:48:33;19.50;99.90
44305;DHT22;30019;50.576;8.568;2022-10-16T14:50:58;19.50;99.90
44305;DHT22;30019;50.576;8.568;2022-10-16T14:53:24;19.40;99.90
44305;DHT22;30019;50.576;8.568;2022-10-16T14:55:50;19.30;99.90
44305;DHT22;30019;50.576;8.568;2022-10-16T14:58:22;19.10;99.90
44305;DHT22;30019;50.576;8.568;2022-10-16T15:00:51;19.10;99.90
44305;DHT22;30019;50.576;8.568;2022-10-16T15:03:17;19.10;99.90
44305;DHT22;30019;50.576;8.568;2022-10-16T15:05:43;19.10;99.90
44305;DHT22;30019;50.576;8.568;2022-10-16T15:08:08;19.00;99.90
44305;DHT22;30019;50.576;8.568;2022-10-16T15:10:40;19.00;99.90
44305;DHT22;30019;50.576;8.568;2022-10-16T15:13:06;19.00;99.90
44305;DHT22;30019;50.576;8.568;2022-10-16T15:15:37;19.30;99.90
44305;DHT22;30019;50.576;8.568;2022-10-16T15:18:03;19.40;99.90
44305;DHT22;30019;50.576;8.568;2022-10-16T15:20:32;19.50;99.90
44305;DHT22;30019;50.576;8.568;2022-10-16T15:23:03;19.50;99.90
44305;DHT22;30019;50.576;8.568;2022-10-16T15:27:59;19.50;99.90
44305;DHT22;30019;50.576;8.568;2022-10-16T15:30:25;19.50;99.90
44305;DHT22;30019;50.576;8.568;2022-10-16T15:32:51;19.50;99.90
44305;DHT22;30019;50.576;8.568;2022-10-16T15:35:17;19.40;99.90
44305;DHT22;30019;50.576;8.568;2022-10-16T15:37:42;19.40;99.90
44305;DHT22;30019;50.576;8.568;2022-10-16T15:40:09;19.40;99.90
44305;DHT22;30019;50.576;8.568;2022-10-16T15:42:35;19.30;99.90
44305;DHT22;30019;50.576;8.568;2022-10-16T15:45:11;19.30;99.90
44305;DHT22;30019;50.576;8.568;2022-10-16T15:47:37;19.20;99.90
44305;DHT22;30019;50.576;8.568;2022-10-16T15:50:04;19.20;99.90
44305;DHT22;30019;50.576;8.568;2022-10-16T15:52:29;19.30;99.90
44305;DHT22;30019;50.576;8.568;2022-10-16T15:54:57;19.20;99.90
44305;DHT22;30019;50.576;8.568;2022-10-16T15:57:23;19.00;99.90
44305;DHT22;30019;50.576;8.568;2022-10-16T15:59:49;18.90;99.90
44305;DHT22;30019;50.576;8.568;2022-10-16T16:02:15;18.70;99.90
44305;DHT22;30019;50.576;8.568;2022-10-16T16:04:40;18.60;99.90
44305;DHT22;30019;50.576;8.568;2022-10-16T16:07:06;18.50;99.90
44305;DHT22;30019;50.576;8.568;2022-10-16T16:09:34;18.40;99.90
44305;DHT22;30019;50.576;8.568;2022-10-16T16:12:00;18.40;99.90
44305;DHT22;30019;50.576;8.568;2022-10-16T16:14:26;18.20;99.90
44305;DHT22;30019;50.576;8.568;2022-10-16T16:16:54;18.30;99.90
44305;DHT22;30019;50.576;8.568;2022-10-16T16:19:19;18.20;99.90
44305;DHT22;30019;50.576;8.568;2022-10-16T16:21:46;18.30;99.90
44305;DHT22;30019;50.576;8.568;2022-10-16T16:24:12;18.20;99.90
44305;DHT22;30019;50.576;8.568;2022-10-16T16:26:38;18.10;99.90
44305;DHT22;30019;50.576;8.568;2022-10-16T16:29:05;18.10;99.90
44305;DHT22;30019;50.576;8.568;2022-10-16T16:31:32;18.00;99.90
44305;DHT22;30019;50.576;8.568;2022-10-16T16:33:58;17.90;99.90
44305;DHT22;30019;50.576;8.568;2022-10-16T16:36:25;17.90;99.90
44305;DHT22;30019;50.576;8.568;2022-10-16T16:38:50;17.90;99.90
44305;DHT22;30019;50.576;8.568;2022-10-16T16:41:20;17.80;99.90
44305;DHT22;30019;50.576;8.568;2022-10-16T16:43:46;17.70;99.90
44305;DHT22;30019;50.576;8.568;2022-10-16T16:46:13;17.80;99.90
44305;DHT22;30019;50.576;8.568;2022-10-16T16:48:39;17.70;99.90
44305;DHT22;30019;50.576;8.568;2022-10-16T16:51:13;17.70;99.90
44305;DHT22;30019;50.576;8.568;2022-10-16T16:53:42;17.60;99.90
44305;DHT22;30019;50.576;8.568;2022-10-16T16:56:07;17.60;99.90
44305;DHT22;30019;50.576;8.568;2022-10-16T16:58:33;17.60;99.90
44305;DHT22;30019;50.576;8.568;2022-10-16T17:01:00;17.40;99.90
44305;DHT22;30019;50.576;8.568;2022-10-16T17:03:28;17.40;99.90
44305;DHT22;30019;50.576;8.568;2022-10-16T17:06:03;17.40;99.90
44305;DHT22;30019;50.576;8.568;2022-10-16T17:08:29;17.50;99.90
44305;DHT22;30019;50.576;8.568;2022-10-16T17:10:56;17.40;99.90
44305;DHT22;30019;50.576;8.568;2022-10-16T17:13:26;17.40;99.90
44305;DHT22;30019;50.576;8.568;2022-10-16T17:15:53;17.40;99.90
44305;DHT22;30019;50.576;8.568;2022-10-16T17:18:21;17.30;99.90
44305;DHT22;30019;50.576;8.568;2022-10-16T17:20:47;17.20;99.90
44305;DHT22;30019;50.576;8.568;2022-10-16T17:23:15;17.10;99.90
44305;DHT22;30019;50.576;8.568;2022-10-16T17:25:41;17.10;99.90
44305;DHT22;30019;50.576;8.568;2022-10-16T17:28:09;17.10;99.90
44305;DHT22;30019;50.576;8.568;2022-10-16T17:30:39;17.10;99.90
44305;DHT22;30019;50.576;8.568;2022-10-16T17:33:05;17.20;99.90
44305;DHT22;30019;50.576;8.568;2022-10-16T17:35:42;17.20;99.90